Terminal Aerodrome Forecast
Issued by NWS Topeka, KS

Home | Current Version | Previous Version | Graphics & Text | Print | Product List | Glossary On
Versions: 1 2 3 4 5 6 7 8 9 10 11 12 13 14 15 16 17 18 19 20
726
FTUS43 KTOP 211936 AAA
TAFTOP
TAF AMD
KTOP 211936Z 2120/2218 19017G25KT P6SM VCTS BKN040CB
      TEMPO 2120/2123 1SM TSRA OVC015CB
     FM212300 29012KT 5SM SHRA OVC035
      TEMPO 2123/2201 3SM TSRA OVC015CB
     FM220200 33008KT P6SM VCSH OVC060
     FM220500 33007KT P6SM BKN150=

USA.gov is the U.S. government's official web portal to all federal, state and local government web resources and services.